createdAt,value
2023-03-20T00:02:07.095Z,43.20
2023-03-20T00:04:35.753Z,43.37
2023-03-20T00:07:03.946Z,43.28
2023-03-20T00:09:33.040Z,43.14
2023-03-20T00:12:01.720Z,43.30
2023-03-20T00:14:31.212Z,43.15
2023-03-20T00:16:59.309Z,43.13
2023-03-20T00:19:29.453Z,43.18
2023-03-20T00:21:57.994Z,43.21
2023-03-20T00:24:26.706Z,43.17
2023-03-20T00:26:55.966Z,43.29
2023-03-20T00:29:26.254Z,43.29
2023-03-20T00:31:56.574Z,43.18
2023-03-20T00:34:29.099Z,43.18
2023-03-20T00:36:58.175Z,43.19
2023-03-20T00:39:26.379Z,43.21
2023-03-20T00:41:57.838Z,43.15
2023-03-20T00:44:29.399Z,43.29
2023-03-20T00:47:01.648Z,43.21
2023-03-20T00:49:32.634Z,43.17
2023-03-20T00:52:02.270Z,43.19
2023-03-20T00:54:31.006Z,43.38
2023-03-20T00:57:02.037Z,43.26
2023-03-20T00:59:33.048Z,43.12
2023-03-20T01:02:03.725Z,43.15
2023-03-20T01:04:37.171Z,43.31
2023-03-20T01:07:05.690Z,43.25
2023-03-20T01:09:34.129Z,43.38
2023-03-20T01:12:03.434Z,43.15
2023-03-20T01:14:31.591Z,43.22
2023-03-20T01:16:59.697Z,43.11
2023-03-20T01:19:29.226Z,43.31
2023-03-20T01:21:57.479Z,43.18
2023-03-20T01:24:25.645Z,43.31
2023-03-20T01:26:54.838Z,43.07
2023-03-20T01:29:25.383Z,43.12
2023-03-20T01:31:54.846Z,43.12
2023-03-20T01:34:23.800Z,43.11
2023-03-20T01:36:55.141Z,43.21
2023-03-20T01:39:24.641Z,43.12
2023-03-20T01:41:54.560Z,43.14
2023-03-20T01:44:25.702Z,43.28
2023-03-20T01:46:55.512Z,43.28
2023-03-20T01:50:00.773Z,43.55
2023-03-20T01:52:30.442Z,43.11
2023-03-20T01:54:58.529Z,43.18
2023-03-20T01:57:27.337Z,43.24
2023-03-20T01:59:59.544Z,43.10
2023-03-20T02:02:31.544Z,43.09
2023-03-20T02:05:03.782Z,43.21
2023-03-20T02:07:36.180Z,43.10
2023-03-20T02:10:05.915Z,43.12
2023-03-20T02:12:36.407Z,42.89
2023-03-20T02:15:05.015Z,43.26
2023-03-20T02:17:33.455Z,43.25
2023-03-20T02:20:13.308Z,43.30
2023-03-20T02:23:26.428Z,43.62
2023-03-20T02:26:23.468Z,43.55
2023-03-20T02:29:23.401Z,43.58
2023-03-20T02:32:16.640Z,43.58
2023-03-20T02:35:26.351Z,43.62
2023-03-20T02:38:14.954Z,43.33
2023-03-20T02:40:49.274Z,43.15
2023-03-20T02:43:26.915Z,43.28
2023-03-20T02:46:01.611Z,43.16
2023-03-20T02:48:41.149Z,43.12
2023-03-20T02:51:17.536Z,43.23
2023-03-20T02:53:54.034Z,43.39
2023-03-20T02:56:30.186Z,43.19
2023-03-20T02:59:08.982Z,43.27
2023-03-20T03:01:41.304Z,43.15
2023-03-20T03:04:12.965Z,43.18
2023-03-20T03:06:44.657Z,43.11
2023-03-20T03:09:20.112Z,43.19
2023-03-20T03:11:53.011Z,43.08
2023-03-20T03:14:28.402Z,43.19
2023-03-20T03:16:58.798Z,43.04
2023-03-20T03:19:29.775Z,43.17
2023-03-20T03:21:57.896Z,43.19
2023-03-20T03:24:40.876Z,43.19
2023-03-20T03:27:18.889Z,43.23
2023-03-20T03:29:52.581Z,42.96
2023-03-20T03:32:26.406Z,43.17
2023-03-20T03:34:55.081Z,43.21
2023-03-20T03:37:34.122Z,43.19
2023-03-20T03:40:11.951Z,43.21
2023-03-20T03:42:44.446Z,43.19
2023-03-20T03:45:17.383Z,43.19
2023-03-20T03:47:49.152Z,43.22
2023-03-20T03:50:22.219Z,43.10
2023-03-20T03:52:52.699Z,43.18
2023-03-20T03:55:26.453Z,43.02
2023-03-20T03:57:59.484Z,43.18
2023-03-20T04:00:29.718Z,43.06
2023-03-20T04:02:59.464Z,43.17
2023-03-20T04:05:33.429Z,43.11
2023-03-20T04:08:06.615Z,43.16
2023-03-20T04:10:36.170Z,43.05
2023-03-20T04:13:04.543Z,43.12
2023-03-20T04:15:32.642Z,43.05
2023-03-20T04:18:00.839Z,43.10
2023-03-20T04:20:29.694Z,43.16
2023-03-20T04:22:57.792Z,42.99
2023-03-20T04:25:27.665Z,43.12
2023-03-20T04:27:57.168Z,42.99
2023-03-20T04:30:25.264Z,43.17
2023-03-20T04:32:53.355Z,43.16
2023-03-20T04:35:21.493Z,43.09
2023-03-20T04:37:49.575Z,43.03
2023-03-20T04:40:18.124Z,43.11
2023-03-20T04:42:46.202Z,43.04
2023-03-20T04:45:15.736Z,43.09
2023-03-20T04:47:43.856Z,43.13
2023-03-20T04:50:14.094Z,42.99
2023-03-20T04:52:42.208Z,43.06
2023-03-20T04:55:10.670Z,42.97
2023-03-20T04:57:38.715Z,43.17
2023-03-20T05:00:07.950Z,42.97
2023-03-20T05:02:37.457Z,43.09
2023-03-20T05:05:06.123Z,42.99
2023-03-20T05:07:34.280Z,43.12
2023-03-20T05:10:02.600Z,42.93
2023-03-20T05:12:30.693Z,42.80
2023-03-20T05:14:58.862Z,43.03
2023-03-20T05:17:26.998Z,43.17
2023-03-20T05:19:57.402Z,43.16
2023-03-20T05:22:25.657Z,42.97
2023-03-20T05:24:54.176Z,42.96
2023-03-20T05:27:22.250Z,43.04
2023-03-20T05:29:50.381Z,43.07
2023-03-20T05:32:18.376Z,43.14
2023-03-20T05:34:46.507Z,43.15
2023-03-20T05:37:15.983Z,42.92
2023-03-20T05:39:44.068Z,43.05
2023-03-20T05:42:12.123Z,43.14
2023-03-20T05:44:40.176Z,43.04
2023-03-20T05:47:08.249Z,42.98
2023-03-20T05:49:36.300Z,43.01
2023-03-20T05:52:04.561Z,43.00
2023-03-20T05:54:34.028Z,43.03
2023-03-20T05:57:02.190Z,43.02
2023-03-20T05:59:30.483Z,43.12
2023-03-20T06:01:58.523Z,42.98
2023-03-20T06:04:27.091Z,43.07
2023-03-20T06:06:55.279Z,42.99
2023-03-20T06:09:23.336Z,43.12
2023-03-20T06:11:52.927Z,43.11
2023-03-20T06:14:21.137Z,43.09
2023-03-20T06:16:49.204Z,43.13
2023-03-20T06:19:17.360Z,43.09
2023-03-20T06:21:45.830Z,43.00
2023-03-20T06:24:13.903Z,42.96
2023-03-20T06:26:42.111Z,43.07
2023-03-20T06:29:11.774Z,43.14
2023-03-20T06:31:39.844Z,43.13
2023-03-20T06:34:07.902Z,42.97
2023-03-20T06:36:36.170Z,43.23
2023-03-20T06:39:04.627Z,43.00
2023-03-20T06:41:34.860Z,43.03
2023-03-20T06:44:03.951Z,42.99
2023-03-20T06:46:33.533Z,43.08
2023-03-20T06:49:01.714Z,42.96
2023-03-20T06:51:29.835Z,43.04
2023-03-20T06:53:57.904Z,42.92
2023-03-20T06:56:26.248Z,43.06
2023-03-20T06:58:54.323Z,42.97
2023-03-20T07:01:23.810Z,42.99
2023-03-20T07:03:53.545Z,43.04
2023-03-20T07:06:21.682Z,42.94
2023-03-20T07:08:49.866Z,42.97
2023-03-20T07:11:18.221Z,43.12
2023-03-20T07:13:49.355Z,43.07
2023-03-20T07:16:18.161Z,43.07
2023-03-20T07:18:46.353Z,43.01
2023-03-20T07:21:21.485Z,42.94
2023-03-20T07:23:49.827Z,43.02
2023-03-20T07:26:18.169Z,42.94
2023-03-20T07:28:46.272Z,43.15
2023-03-20T07:31:21.206Z,43.15
2023-03-20T07:33:49.365Z,42.97
2023-03-20T07:36:19.122Z,42.98
2023-03-20T07:38:47.209Z,42.96
2023-03-20T07:41:15.524Z,43.07
2023-03-20T07:43:44.878Z,43.05
2023-03-20T07:46:13.109Z,42.92
2023-03-20T07:48:41.176Z,42.98
2023-03-20T07:51:09.938Z,43.10
2023-03-20T07:53:39.419Z,43.01
2023-03-20T07:56:08.676Z,42.88
2023-03-20T07:58:36.726Z,42.97
2023-03-20T08:01:05.319Z,43.13
2023-03-20T08:03:34.138Z,42.93
2023-03-20T08:06:04.413Z,43.07
2023-03-20T08:08:32.563Z,42.97
2023-03-20T08:11:02.151Z,43.00
2023-03-20T08:13:30.216Z,43.02
2023-03-20T08:15:58.330Z,43.09
2023-03-20T08:18:26.499Z,43.04
2023-03-20T08:20:54.537Z,43.03
2023-03-20T08:23:22.670Z,43.06
2023-03-20T08:25:51.147Z,43.00
2023-03-20T08:28:20.651Z,42.91
2023-03-20T08:30:48.908Z,42.97
2023-03-20T08:33:18.542Z,42.91
2023-03-20T08:35:57.018Z,43.03
2023-03-20T08:38:25.184Z,42.98
2023-03-20T08:40:54.809Z,42.98
2023-03-20T08:43:24.408Z,42.95
2023-03-20T08:45:52.620Z,42.95
2023-03-20T08:48:20.709Z,42.91
2023-03-20T08:50:48.783Z,43.04
2023-03-20T08:53:16.952Z,43.02
2023-03-20T08:55:49.499Z,43.00
2023-03-20T08:58:17.654Z,43.03
2023-03-20T09:00:47.236Z,42.95
2023-03-20T09:03:16.696Z,43.09
2023-03-20T09:05:46.099Z,42.94
2023-03-20T09:08:14.657Z,42.99
2023-03-20T09:10:42.944Z,43.01
2023-03-20T09:13:26.108Z,42.86
2023-03-20T09:15:57.312Z,42.85
2023-03-20T09:18:26.092Z,43.01
2023-03-20T09:20:54.272Z,42.91
2023-03-20T09:23:22.474Z,42.95
2023-03-20T09:25:50.578Z,42.79
2023-03-20T09:28:18.671Z,42.87
2023-03-20T09:30:47.348Z,42.79
2023-03-20T09:33:18.643Z,42.81
2023-03-20T09:35:47.064Z,42.97
2023-03-20T09:38:15.672Z,42.94
2023-03-20T09:40:52.570Z,42.94
2023-03-20T09:43:51.282Z,43.08
2023-03-20T09:46:34.556Z,42.88
2023-03-20T09:49:14.678Z,42.92
2023-03-20T09:51:49.801Z,42.83
2023-03-20T09:54:25.911Z,42.89
2023-03-20T09:56:55.400Z,42.89
2023-03-20T09:59:26.806Z,42.86
2023-03-20T10:01:57.353Z,42.81
2023-03-20T10:04:29.827Z,42.86
2023-03-20T10:06:58.283Z,42.82
2023-03-20T10:09:28.534Z,43.05
2023-03-20T10:12:11.610Z,42.86
2023-03-20T10:14:52.935Z,42.87
2023-03-20T10:17:32.601Z,43.01
2023-03-20T10:20:12.068Z,42.87
2023-03-20T10:22:43.807Z,42.94
2023-03-20T10:25:24.309Z,43.01
2023-03-20T10:27:58.801Z,42.88
2023-03-20T10:30:49.625Z,43.07
2023-03-20T10:33:34.668Z,43.00
2023-03-20T10:36:17.040Z,43.08
2023-03-20T10:38:53.865Z,42.90
2023-03-20T10:41:26.353Z,42.86
2023-03-20T10:43:55.912Z,43.09
2023-03-20T10:46:27.515Z,42.92
2023-03-20T10:49:02.167Z,42.88
2023-03-20T10:51:40.469Z,42.86
2023-03-20T10:54:23.156Z,42.97
2023-03-20T10:56:55.958Z,42.79
2023-03-20T10:59:26.667Z,42.93
2023-03-20T11:01:55.270Z,42.85
2023-03-20T11:04:23.466Z,42.73
2023-03-20T11:07:00.012Z,42.88
2023-03-20T11:09:30.465Z,42.79
2023-03-20T11:12:01.376Z,42.85
2023-03-20T11:14:35.165Z,42.83
2023-03-20T11:17:05.438Z,42.70
2023-03-20T11:19:36.224Z,42.87
2023-03-20T11:22:11.279Z,42.89
2023-03-20T11:24:42.873Z,42.88
2023-03-20T11:27:13.282Z,42.79
2023-03-20T11:29:45.734Z,42.75
2023-03-20T11:32:24.424Z,42.52
2023-03-20T11:34:53.977Z,42.83
2023-03-20T11:37:31.107Z,42.81
2023-03-20T11:40:01.074Z,42.87
2023-03-20T11:42:31.689Z,42.83
2023-03-20T11:45:01.853Z,42.79
2023-03-20T11:47:34.527Z,42.76
2023-03-20T11:50:06.053Z,42.87
2023-03-20T11:52:38.307Z,42.78
2023-03-20T11:55:24.143Z,42.84
2023-03-20T11:57:52.421Z,42.78
2023-03-20T12:00:22.793Z,42.61
2023-03-20T12:02:51.653Z,42.84
2023-03-20T12:05:31.499Z,42.77
2023-03-20T12:08:05.159Z,42.82
2023-03-20T12:10:39.594Z,42.70
2023-03-20T12:13:14.968Z,42.87
2023-03-20T12:15:48.291Z,42.68
2023-03-20T12:18:23.312Z,42.74
2023-03-20T12:21:03.217Z,42.69
2023-03-20T12:23:37.368Z,42.64
2023-03-20T12:26:08.430Z,42.73
2023-03-20T12:28:42.063Z,42.64
2023-03-20T12:31:21.241Z,42.73
2023-03-20T12:33:54.946Z,42.83
2023-03-20T12:36:31.297Z,42.82
2023-03-20T12:39:01.173Z,42.79
2023-03-20T12:41:34.520Z,42.68
2023-03-20T12:44:24.305Z,42.80
2023-03-20T12:46:59.732Z,42.64
2023-03-20T12:49:41.405Z,42.76
2023-03-20T12:52:16.826Z,42.82
2023-03-20T12:55:10.697Z,42.81
2023-03-20T12:57:46.694Z,42.60
2023-03-20T13:00:24.206Z,42.75
2023-03-20T13:03:03.605Z,42.62
2023-03-20T13:05:42.789Z,42.61
2023-03-20T13:08:32.699Z,42.76
2023-03-20T13:11:11.432Z,42.82
2023-03-20T13:13:47.761Z,42.70
2023-03-20T13:16:25.362Z,42.76
2023-03-20T13:19:01.722Z,42.78
2023-03-20T13:21:38.040Z,42.63
2023-03-20T13:24:28.581Z,42.83
2023-03-20T13:27:07.098Z,42.79
2023-03-20T13:29:45.409Z,42.75
2023-03-20T13:32:21.896Z,42.69
2023-03-20T13:35:04.993Z,42.65
2023-03-20T13:37:37.443Z,42.66
2023-03-20T13:40:12.609Z,42.80
2023-03-20T13:42:48.994Z,42.78
2023-03-20T13:45:28.935Z,42.60
2023-03-20T13:48:01.554Z,42.65
2023-03-20T13:50:40.380Z,42.66
2023-03-20T13:53:23.192Z,42.66
2023-03-20T13:55:59.902Z,42.64
2023-03-20T13:58:53.034Z,42.77
2023-03-20T14:01:27.752Z,42.53
2023-03-20T14:03:56.982Z,42.65
2023-03-20T14:06:53.281Z,42.75
2023-03-20T14:09:33.325Z,42.80
2023-03-20T14:12:07.575Z,42.56
2023-03-20T14:14:44.558Z,42.69
2023-03-20T14:17:21.886Z,42.82
2023-03-20T14:19:51.794Z,42.64
2023-03-20T14:22:22.076Z,42.62
2023-03-20T14:25:00.233Z,42.49
2023-03-20T14:27:43.217Z,42.65
2023-03-20T14:30:43.325Z,42.75
2023-03-20T14:33:31.618Z,42.71
2023-03-20T14:36:20.830Z,42.78
2023-03-20T14:39:00.570Z,42.60
2023-03-20T14:41:36.940Z,42.72
2023-03-20T14:44:21.126Z,42.64
2023-03-20T14:46:56.230Z,42.66
2023-03-20T14:49:35.651Z,42.64
2023-03-20T14:52:24.300Z,42.50
2023-03-20T14:54:56.444Z,42.55
2023-03-20T14:57:37.652Z,42.77
2023-03-20T15:00:21.279Z,42.70
2023-03-20T15:02:53.737Z,42.50
2023-03-20T15:05:29.462Z,42.62
2023-03-20T15:07:59.220Z,42.56
2023-03-20T15:10:27.529Z,42.57
2023-03-20T15:12:58.344Z,42.70
2023-03-20T15:15:28.379Z,42.50
2023-03-20T15:17:57.851Z,42.50
2023-03-20T15:20:29.440Z,42.59
2023-03-20T15:22:59.420Z,42.58
2023-03-20T15:25:32.824Z,42.56
2023-03-20T15:28:00.967Z,42.63
2023-03-20T15:30:33.819Z,42.61
2023-03-20T15:33:03.659Z,42.46
2023-03-20T15:35:32.153Z,42.52
2023-03-20T15:38:06.592Z,42.57
2023-03-20T15:40:49.971Z,42.46
2023-03-20T15:43:22.762Z,42.46
2023-03-20T15:45:57.612Z,42.49
2023-03-20T15:48:32.504Z,42.52
2023-03-20T15:51:05.156Z,42.60
2023-03-20T15:53:35.452Z,42.56
2023-03-20T15:56:17.240Z,42.69
2023-03-20T15:58:47.642Z,42.53
2023-03-20T16:01:20.208Z,42.50
2023-03-20T16:03:50.508Z,42.53
2023-03-20T16:06:21.911Z,42.46
2023-03-20T16:08:59.725Z,42.60
2023-03-20T16:11:37.880Z,42.59
2023-03-20T16:14:07.269Z,42.58
2023-03-20T16:16:37.696Z,42.57
2023-03-20T16:19:08.661Z,42.58
2023-03-20T16:21:40.053Z,42.53
2023-03-20T16:24:11.619Z,42.61
2023-03-20T16:26:43.715Z,42.60
2023-03-20T16:29:15.052Z,42.77
2023-03-20T16:31:48.677Z,42.48
2023-03-20T16:34:22.123Z,42.59
2023-03-20T16:36:56.356Z,42.54
2023-03-20T16:39:27.507Z,42.53
2023-03-20T16:42:12.246Z,42.65
2023-03-20T16:44:43.214Z,42.45
2023-03-20T16:47:23.980Z,42.64
2023-03-20T16:50:12.728Z,42.75
2023-03-20T16:52:43.015Z,42.42
2023-03-20T16:55:19.025Z,42.51
2023-03-20T16:57:52.868Z,42.56
2023-03-20T17:00:28.564Z,42.67
2023-03-20T17:03:06.511Z,42.59
2023-03-20T17:05:49.249Z,42.61
2023-03-20T17:08:23.161Z,42.48
2023-03-20T17:10:55.627Z,42.50
2023-03-20T17:13:24.156Z,42.55
2023-03-20T17:15:52.315Z,42.55
2023-03-20T17:18:20.404Z,42.55
2023-03-20T17:20:49.907Z,42.52
2023-03-20T17:23:22.582Z,42.51
2023-03-20T17:25:52.234Z,42.57
2023-03-20T17:28:23.227Z,42.54
2023-03-20T17:30:52.538Z,42.60
2023-03-20T17:33:22.211Z,42.56
2023-03-20T17:35:53.034Z,42.42
2023-03-20T17:38:23.311Z,42.63
2023-03-20T17:40:52.453Z,42.55
2023-03-20T17:43:21.462Z,42.63
2023-03-20T17:45:49.794Z,42.56
2023-03-20T17:48:20.904Z,42.61
2023-03-20T17:50:51.679Z,42.58
2023-03-20T17:53:21.510Z,42.62
2023-03-20T17:55:49.644Z,42.50
2023-03-20T17:58:21.072Z,42.50
2023-03-20T18:00:51.188Z,42.43
2023-03-20T18:03:19.670Z,42.53
2023-03-20T18:05:49.904Z,42.49
2023-03-20T18:08:22.099Z,42.51
2023-03-20T18:10:51.947Z,42.58
2023-03-20T18:13:21.220Z,42.50
2023-03-20T18:15:49.697Z,42.59
2023-03-20T18:18:18.186Z,42.48
2023-03-20T18:20:47.089Z,42.58
2023-03-20T18:23:15.999Z,42.55
2023-03-20T18:25:45.566Z,42.46
2023-03-20T18:28:20.592Z,42.39
2023-03-20T18:30:49.929Z,42.49
2023-03-20T18:33:18.147Z,42.52
2023-03-20T18:35:46.487Z,42.51
2023-03-20T18:38:14.911Z,42.45
2023-03-20T18:40:47.248Z,42.31
2023-03-20T18:43:16.766Z,42.36
2023-03-20T18:45:44.907Z,42.24
2023-03-20T18:48:13.763Z,42.32
2023-03-20T18:50:43.478Z,42.31
2023-03-20T18:53:12.295Z,42.37
2023-03-20T18:55:40.413Z,42.26
2023-03-20T18:58:17.081Z,42.08
2023-03-20T19:00:46.617Z,42.14
2023-03-20T19:03:14.947Z,42.04
2023-03-20T19:05:43.088Z,42.10
2023-03-20T19:08:15.767Z,42.07
2023-03-20T19:10:44.919Z,42.15
2023-03-20T19:13:15.819Z,42.05
2023-03-20T19:15:45.057Z,42.14
2023-03-20T19:18:18.052Z,41.95
2023-03-20T19:20:48.137Z,42.06
2023-03-20T19:23:18.318Z,42.16
2023-03-20T19:25:48.760Z,41.97
2023-03-20T19:28:34.565Z,41.99
2023-03-20T19:31:06.649Z,41.99
2023-03-20T19:33:36.363Z,42.11
2023-03-20T19:36:05.095Z,42.04
2023-03-20T19:38:34.221Z,42.11
2023-03-20T19:41:03.834Z,42.02
2023-03-20T19:43:32.371Z,42.05
2023-03-20T19:46:01.053Z,42.06
2023-03-20T19:48:47.124Z,42.07
2023-03-20T19:51:21.592Z,41.89
2023-03-20T19:53:50.919Z,42.01
2023-03-20T19:56:22.082Z,41.96
2023-03-20T19:58:50.926Z,42.01
2023-03-20T20:01:21.333Z,41.98
2023-03-20T20:03:51.002Z,42.00
2023-03-20T20:06:22.319Z,41.98
2023-03-20T20:08:51.186Z,42.05
2023-03-20T20:11:19.684Z,41.87
2023-03-20T20:14:05.648Z,42.00
2023-03-20T20:16:36.075Z,41.98
2023-03-20T20:19:04.552Z,41.84
2023-03-20T20:24:22.622Z,42.06
2023-03-20T20:27:03.466Z,41.96
2023-03-20T20:29:39.500Z,42.02
2023-03-20T20:32:07.711Z,42.01
2023-03-20T20:40:16.873Z,41.98
2023-03-20T20:42:47.476Z,41.99
2023-03-20T20:45:16.530Z,42.04
2023-03-20T20:47:46.022Z,42.05
2023-03-20T20:50:15.123Z,41.90
2023-03-20T20:52:45.227Z,42.00
2023-03-20T20:55:23.051Z,41.92
2023-03-20T20:57:52.482Z,42.01
2023-03-20T21:00:27.387Z,42.00
2023-03-20T21:03:00.030Z,41.92
2023-03-20T21:05:28.366Z,41.93
2023-03-20T21:07:58.136Z,41.86
2023-03-20T21:10:26.453Z,42.00
2023-03-20T21:12:59.498Z,41.91
2023-03-20T21:15:28.382Z,41.87
2023-03-20T21:18:01.768Z,41.86
2023-03-20T21:20:30.608Z,41.91
2023-03-20T21:23:00.348Z,41.99
2023-03-20T21:25:47.068Z,41.90
2023-03-20T21:28:15.897Z,41.94
2023-03-20T21:31:04.198Z,41.90
2023-03-20T21:33:33.376Z,41.81
2023-03-20T21:36:01.683Z,41.97
2023-03-20T21:39:05.877Z,41.84
2023-03-20T21:41:19.452Z,41.92
2023-03-20T21:43:47.847Z,41.74
2023-03-20T22:03:12.550Z,41.93
2023-03-20T22:15:03.936Z,41.80
2023-03-20T22:20:40.289Z,41.74
2023-03-20T22:26:22.457Z,41.91
2023-03-20T22:29:01.660Z,41.84
2023-03-20T22:45:12.599Z,41.84
2023-03-20T22:47:40.925Z,41.75
2023-03-20T22:50:10.296Z,41.89
2023-03-20T22:52:48.656Z,41.84
2023-03-20T22:55:18.441Z,41.81
2023-03-20T22:57:59.877Z,41.83
2023-03-20T23:00:33.285Z,41.70
2023-03-20T23:03:14.130Z,41.77
2023-03-20T23:05:45.967Z,41.78
2023-03-20T23:08:14.186Z,42.00
2023-03-20T23:10:44.270Z,41.83
2023-03-20T23:13:13.173Z,41.76
2023-03-20T23:15:42.879Z,41.78
2023-03-20T23:18:11.769Z,41.77
2023-03-20T23:20:40.987Z,41.55
2023-03-20T23:23:09.244Z,41.68
2023-03-20T23:25:40.233Z,41.56
2023-03-20T23:28:09.472Z,41.73
2023-03-20T23:30:45.304Z,41.82
2023-03-20T23:33:19.242Z,41.71
2023-03-20T23:35:48.833Z,41.84
2023-03-20T23:38:17.910Z,41.73
2023-03-20T23:40:50.488Z,41.80
2023-03-20T23:43:19.399Z,41.71
2023-03-20T23:45:47.784Z,41.75
2023-03-20T23:48:16.168Z,41.70
2023-03-20T23:50:52.875Z,41.66
2023-03-20T23:53:22.458Z,41.78
2023-03-20T23:55:51.755Z,41.69
2023-03-20T23:58:20.942Z,41.61
